sensor_id;sensor_type;location;lat;lon;timestamp;temperature;humidity
8332;DHT22;4203;48.144;14.118;2024-03-23T00:52:24;8.20;99.90
8332;DHT22;4203;48.144;14.118;2024-03-23T00:54:51;8.20;99.90
8332;DHT22;4203;48.144;14.118;2024-03-23T00:57:18;8.20;99.90
8332;DHT22;4203;48.144;14.118;2024-03-23T00:59:44;8.20;99.90
8332;DHT22;4203;48.144;14.118;2024-03-23T01:02:11;8.20;99.90
8332;DHT22;4203;48.144;14.118;2024-03-23T01:04:38;8.20;99.90
8332;DHT22;4203;48.144;14.118;2024-03-23T01:07:05;8.20;99.90
8332;DHT22;4203;48.144;14.118;2024-03-23T01:09:32;8.20;99.90
8332;DHT22;4203;48.144;14.118;2024-03-23T01:12:00;8.20;99.90
8332;DHT22;4203;48.144;14.118;2024-03-23T01:14:27;8.20;99.90
8332;DHT22;4203;48.144;14.118;2024-03-23T01:16:54;8.10;99.90
8332;DHT22;4203;48.144;14.118;2024-03-23T01:19:20;8.10;99.90
8332;DHT22;4203;48.144;14.118;2024-03-23T01:21:47;8.20;99.90
8332;DHT22;4203;48.144;14.118;2024-03-23T01:24:15;8.10;99.90
8332;DHT22;4203;48.144;14.118;2024-03-23T01:26:43;8.10;99.90
8332;DHT22;4203;48.144;14.118;2024-03-23T01:29:09;8.20;99.90
8332;DHT22;4203;48.144;14.118;2024-03-23T01:31:37;8.20;99.90
8332;DHT22;4203;48.144;14.118;2024-03-23T01:34:03;8.20;99.90
8332;DHT22;4203;48.144;14.118;2024-03-23T01:36:30;8.20;99.90
8332;DHT22;4203;48.144;14.118;2024-03-23T01:38:56;8.20;99.90
8332;DHT22;4203;48.144;14.118;2024-03-23T01:41:24;8.20;99.90
8332;DHT22;4203;48.144;14.118;2024-03-23T01:43:52;8.10;99.90
8332;DHT22;4203;48.144;14.118;2024-03-23T01:46:22;8.10;99.90
8332;DHT22;4203;48.144;14.118;2024-03-23T01:48:49;8.10;99.90
8332;DHT22;4203;48.144;14.118;2024-03-23T01:51:16;8.10;99.90
8332;DHT22;4203;48.144;14.118;2024-03-23T01:53:42;8.00;99.90
8332;DHT22;4203;48.144;14.118;2024-03-23T01:56:10;8.00;99.90
8332;DHT22;4203;48.144;14.118;2024-03-23T01:58:36;8.00;99.90
8332;DHT22;4203;48.144;14.118;2024-03-23T02:01:04;8.00;99.90
8332;DHT22;4203;48.144;14.118;2024-03-23T02:03:30;7.90;99.90
8332;DHT22;4203;48.144;14.118;2024-03-23T02:05:58;7.90;99.90
8332;DHT22;4203;48.144;14.118;2024-03-23T02:08:24;7.90;99.90
8332;DHT22;4203;48.144;14.118;2024-03-23T02:10:51;8.00;99.90
8332;DHT22;4203;48.144;14.118;2024-03-23T02:13:18;8.00;99.90
8332;DHT22;4203;48.144;14.118;2024-03-23T02:15:45;8.00;99.90
8332;DHT22;4203;48.144;14.118;2024-03-23T02:18:13;8.00;99.90
8332;DHT22;4203;48.144;14.118;2024-03-23T02:20:40;8.00;99.90
8332;DHT22;4203;48.144;14.118;2024-03-23T02:23:13;8.00;99.90
8332;DHT22;4203;48.144;14.118;2024-03-23T02:25:40;8.00;99.90
8332;DHT22;4203;48.144;14.118;2024-03-23T02:28:06;7.90;99.90
8332;DHT22;4203;48.144;14.118;2024-03-23T02:30:34;7.90;99.90
8332;DHT22;4203;48.144;14.118;2024-03-23T02:33:00;7.90;99.90
8332;DHT22;4203;48.144;14.118;2024-03-23T02:35:27;7.80;99.90
8332;DHT22;4203;48.144;14.118;2024-03-23T02:37:53;7.80;99.90
8332;DHT22;4203;48.144;14.118;2024-03-23T02:40:23;7.70;99.90
8332;DHT22;4203;48.144;14.118;2024-03-23T02:42:49;7.60;99.90
8332;DHT22;4203;48.144;14.118;2024-03-23T02:45:16;7.60;99.90
8332;DHT22;4203;48.144;14.118;2024-03-23T02:47:43;7.50;99.90
8332;DHT22;4203;48.144;14.118;2024-03-23T02:50:10;7.50;99.90
8332;DHT22;4203;48.144;14.118;2024-03-23T02:52:36;7.50;99.90
8332;DHT22;4203;48.144;14.118;2024-03-23T02:55:04;7.50;99.90
8332;DHT22;4203;48.144;14.118;2024-03-23T02:57:32;7.50;99.90
8332;DHT22;4203;48.144;14.118;2024-03-23T02:59:59;7.40;99.90
8332;DHT22;4203;48.144;14.118;2024-03-23T03:02:28;7.40;99.90
8332;DHT22;4203;48.144;14.118;2024-03-23T03:04:55;7.40;99.90
8332;DHT22;4203;48.144;14.118;2024-03-23T03:07:21;7.40;99.90
8332;DHT22;4203;48.144;14.118;2024-03-23T03:09:48;7.30;99.90
8332;DHT22;4203;48.144;14.118;2024-03-23T03:12:14;7.20;99.90
8332;DHT22;4203;48.144;14.118;2024-03-23T03:14:43;7.20;99.90
8332;DHT22;4203;48.144;14.118;2024-03-23T03:17:09;7.20;99.90
8332;DHT22;4203;48.144;14.118;2024-03-23T03:19:36;7.10;99.90
8332;DHT22;4203;48.144;14.118;2024-03-23T03:22:02;7.10;99.90
8332;DHT22;4203;48.144;14.118;2024-03-23T03:24:30;7.00;99.90
8332;DHT22;4203;48.144;14.118;2024-03-23T03:26:56;6.90;99.90
8332;DHT22;4203;48.144;14.118;2024-03-23T03:29:24;6.90;99.90
8332;DHT22;4203;48.144;14.118;2024-03-23T03:31:52;6.80;99.90
8332;DHT22;4203;48.144;14.118;2024-03-23T03:34:19;6.80;99.90
8332;DHT22;4203;48.144;14.118;2024-03-23T03:36:45;6.70;99.90
8332;DHT22;4203;48.144;14.118;2024-03-23T03:39:12;6.70;99.90
8332;DHT22;4203;48.144;14.118;2024-03-23T03:41:38;6.60;99.90
8332;DHT22;4203;48.144;14.118;2024-03-23T03:44:05;6.50;99.90
8332;DHT22;4203;48.144;14.118;2024-03-23T03:46:31;6.50;99.90
8332;DHT22;4203;48.144;14.118;2024-03-23T03:49:00;6.50;99.90
8332;DHT22;4203;48.144;14.118;2024-03-23T03:51:26;6.40;99.90
8332;DHT22;4203;48.144;14.118;2024-03-23T03:53:53;6.40;99.90
8332;DHT22;4203;48.144;14.118;2024-03-23T03:56:19;6.40;99.90
8332;DHT22;4203;48.144;14.118;2024-03-23T03:58:48;6.30;99.90
8332;DHT22;4203;48.144;14.118;2024-03-23T04:01:14;6.20;99.90
8332;DHT22;4203;48.144;14.118;2024-03-23T04:03:42;6.20;99.90
8332;DHT22;4203;48.144;14.118;2024-03-23T04:06:11;6.10;99.90
8332;DHT22;4203;48.144;14.118;2024-03-23T04:08:38;6.00;99.90
8332;DHT22;4203;48.144;14.118;2024-03-23T04:11:05;6.00;99.90
8332;DHT22;4203;48.144;14.118;2024-03-23T04:13:31;5.90;99.90
8332;DHT22;4203;48.144;14.118;2024-03-23T04:15:59;5.90;99.90
8332;DHT22;4203;48.144;14.118;2024-03-23T04:18:25;5.90;99.90
8332;DHT22;4203;48.144;14.118;2024-03-23T04:20:53;5.80;99.90
8332;DHT22;4203;48.144;14.118;2024-03-23T04:23:20;5.70;99.90
8332;DHT22;4203;48.144;14.118;2024-03-23T04:25:48;5.70;99.90
8332;DHT22;4203;48.144;14.118;2024-03-23T04:28:14;5.60;99.90
8332;DHT22;4203;48.144;14.118;2024-03-23T04:30:41;5.60;99.90
8332;DHT22;4203;48.144;14.118;2024-03-23T04:33:07;5.50;99.90
8332;DHT22;4203;48.144;14.118;2024-03-23T04:35:34;5.50;99.90
8332;DHT22;4203;48.144;14.118;2024-03-23T04:38:01;5.50;99.90
8332;DHT22;4203;48.144;14.118;2024-03-23T04:40:29;5.40;99.90
8332;DHT22;4203;48.144;14.118;2024-03-23T04:42:57;5.40;99.90
8332;DHT22;4203;48.144;14.118;2024-03-23T04:45:25;5.30;99.90
8332;DHT22;4203;48.144;14.118;2024-03-23T04:47:52;5.30;99.90
8332;DHT22;4203;48.144;14.118;2024-03-23T04:50:19;5.40;99.90
8332;DHT22;4203;48.144;14.118;2024-03-23T04:52:47;5.30;99.90
8332;DHT22;4203;48.144;14.118;2024-03-23T04:55:14;5.30;99.90
8332;DHT22;4203;48.144;14.118;2024-03-23T04:57:44;5.20;99.90
8332;DHT22;4203;48.144;14.118;2024-03-23T05:00:11;5.20;99.90
8332;DHT22;4203;48.144;14.118;2024-03-23T05:02:44;5.20;99.90
8332;DHT22;4203;48.144;14.118;2024-03-23T05:05:10;5.20;99.90
8332;DHT22;4203;48.144;14.118;2024-03-23T05:07:38;5.20;99.90
8332;DHT22;4203;48.144;14.118;2024-03-23T05:10:04;5.20;99.90
8332;DHT22;4203;48.144;14.118;2024-03-23T05:12:36;5.10;99.90
8332;DHT22;4203;48.144;14.118;2024-03-23T05:15:03;5.10;99.90
8332;DHT22;4203;48.144;14.118;2024-03-23T05:17:31;5.10;99.90
8332;DHT22;4203;48.144;14.118;2024-03-23T05:19:57;5.10;99.90
8332;DHT22;4203;48.144;14.118;2024-03-23T05:22:24;5.00;99.90
8332;DHT22;4203;48.144;14.118;2024-03-23T05:24:50;5.00;99.90
8332;DHT22;4203;48.144;14.118;2024-03-23T05:27:18;5.00;99.90
8332;DHT22;4203;48.144;14.118;2024-03-23T05:29:44;4.80;99.90
8332;DHT22;4203;48.144;14.118;2024-03-23T05:32:14;4.80;99.90
8332;DHT22;4203;48.144;14.118;2024-03-23T05:34:40;4.80;99.90
8332;DHT22;4203;48.144;14.118;2024-03-23T05:37:08;4.80;99.90
8332;DHT22;4203;48.144;14.118;2024-03-23T05:39:34;4.90;99.90
8332;DHT22;4203;48.144;14.118;2024-03-23T05:42:01;4.90;99.90
8332;DHT22;4203;48.144;14.118;2024-03-23T05:44:27;5.00;99.90
8332;DHT22;4203;48.144;14.118;2024-03-23T05:46:55;5.00;99.90
8332;DHT22;4203;48.144;14.118;2024-03-23T05:49:22;5.20;99.90
8332;DHT22;4203;48.144;14.118;2024-03-23T05:51:50;5.40;99.90
8332;DHT22;4203;48.144;14.118;2024-03-23T05:54:16;5.60;99.90
8332;DHT22;4203;48.144;14.118;2024-03-23T05:56:44;5.70;99.90
8332;DHT22;4203;48.144;14.118;2024-03-23T05:59:10;5.80;99.90
8332;DHT22;4203;48.144;14.118;2024-03-23T06:01:37;6.00;99.90
8332;DHT22;4203;48.144;14.118;2024-03-23T06:04:04;6.30;99.90
8332;DHT22;4203;48.144;14.118;2024-03-23T06:06:33;6.50;99.90
8332;DHT22;4203;48.144;14.118;2024-03-23T06:08:59;6.80;99.90
8332;DHT22;4203;48.144;14.118;2024-03-23T06:11:27;6.70;99.90
8332;DHT22;4203;48.144;14.118;2024-03-23T06:13:53;6.70;99.90
8332;DHT22;4203;48.144;14.118;2024-03-23T06:16:20;6.80;99.90
8332;DHT22;4203;48.144;14.118;2024-03-23T06:18:49;6.90;99.90
8332;DHT22;4203;48.144;14.118;2024-03-23T06:21:25;7.00;99.90
8332;DHT22;4203;48.144;14.118;2024-03-23T06:23:53;7.20;99.90
8332;DHT22;4203;48.144;14.118;2024-03-23T06:26:21;7.30;99.90
8332;DHT22;4203;48.144;14.118;2024-03-23T06:28:47;7.40;99.90
8332;DHT22;4203;48.144;14.118;2024-03-23T06:31:14;7.40;99.90
8332;DHT22;4203;48.144;14.118;2024-03-23T06:33:41;7.50;99.90
8332;DHT22;4203;48.144;14.118;2024-03-23T06:36:10;7.60;99.90
8332;DHT22;4203;48.144;14.118;2024-03-23T06:38:36;7.70;99.90
8332;DHT22;4203;48.144;14.118;2024-03-23T06:41:06;7.80;99.90
8332;DHT22;4203;48.144;14.118;2024-03-23T06:43:32;7.90;99.90
8332;DHT22;4203;48.144;14.118;2024-03-23T06:46:00;8.00;99.90
8332;DHT22;4203;48.144;14.118;2024-03-23T06:48:26;8.20;99.90
8332;DHT22;4203;48.144;14.118;2024-03-23T06:50:56;8.40;99.90
8332;DHT22;4203;48.144;14.118;2024-03-23T06:53:22;8.60;99.90
8332;DHT22;4203;48.144;14.118;2024-03-23T06:55:50;8.80;99.90
8332;DHT22;4203;48.144;14.118;2024-03-23T06:58:19;9.00;99.90
8332;DHT22;4203;48.144;14.118;2024-03-23T07:00:46;9.20;99.90
8332;DHT22;4203;48.144;14.118;2024-03-23T07:03:13;9.40;99.90
8332;DHT22;4203;48.144;14.118;2024-03-23T07:05:40;9.50;99.90
8332;DHT22;4203;48.144;14.118;2024-03-23T07:08:06;9.70;99.90
8332;DHT22;4203;48.144;14.118;2024-03-23T07:10:33;9.90;99.90
8332;DHT22;4203;48.144;14.118;2024-03-23T07:13:09;10.10;99.90
8332;DHT22;4203;48.144;14.118;2024-03-23T07:15:37;10.40;99.90
8332;DHT22;4203;48.144;14.118;2024-03-23T07:18:03;10.60;99.90
8332;DHT22;4203;48.144;14.118;2024-03-23T07:20:31;10.80;99.90
8332;DHT22;4203;48.144;14.118;2024-03-23T07:22:57;11.00;99.90
8332;DHT22;4203;48.144;14.118;2024-03-23T07:25:24;11.30;99.90
8332;DHT22;4203;48.144;14.118;2024-03-23T07:27:52;11.50;99.90
8332;DHT22;4203;48.144;14.118;2024-03-23T07:30:19;11.70;99.90
8332;DHT22;4203;48.144;14.118;2024-03-23T07:32:54;11.90;99.90
8332;DHT22;4203;48.144;14.118;2024-03-23T07:35:22;12.20;99.90
8332;DHT22;4203;48.144;14.118;2024-03-23T07:37:48;12.50;99.90
8332;DHT22;4203;48.144;14.118;2024-03-23T07:40:15;12.80;99.90
8332;DHT22;4203;48.144;14.118;2024-03-23T07:42:41;13.00;99.90
8332;DHT22;4203;48.144;14.118;2024-03-23T07:45:09;13.30;99.90
8332;DHT22;4203;48.144;14.118;2024-03-23T07:47:35;13.70;99.90
8332;DHT22;4203;48.144;14.118;2024-03-23T07:50:04;14.00;99.90
8332;DHT22;4203;48.144;14.118;2024-03-23T07:52:33;14.40;99.90
8332;DHT22;4203;48.144;14.118;2024-03-23T07:55:00;14.80;99.90
8332;DHT22;4203;48.144;14.118;2024-03-23T07:57:26;15.30;99.90
8332;DHT22;4203;48.144;14.118;2024-03-23T07:59:53;15.70;99.90
8332;DHT22;4203;48.144;14.118;2024-03-23T08:02:19;15.90;99.90
8332;DHT22;4203;48.144;14.118;2024-03-23T08:04:46;16.20;99.90
8332;DHT22;4203;48.144;14.118;2024-03-23T08:07:14;16.70;99.90
8332;DHT22;4203;48.144;14.118;2024-03-23T08:09:41;17.00;99.90
8332;DHT22;4203;48.144;14.118;2024-03-23T08:12:07;17.20;99.90
8332;DHT22;4203;48.144;14.118;2024-03-23T08:14:35;17.40;99.90
8332;DHT22;4203;48.144;14.118;2024-03-23T08:17:01;17.90;99.90
8332;DHT22;4203;48.144;14.118;2024-03-23T08:19:28;18.50;99.90
8332;DHT22;4203;48.144;14.118;2024-03-23T08:21:54;18.90;99.90
8332;DHT22;4203;48.144;14.118;2024-03-23T08:24:23;19.30;99.90
8332;DHT22;4203;48.144;14.118;2024-03-23T08:26:49;19.80;99.90
8332;DHT22;4203;48.144;14.118;2024-03-23T08:29:16;20.10;99.90
8332;DHT22;4203;48.144;14.118;2024-03-23T08:31:42;20.30;99.90
8332;DHT22;4203;48.144;14.118;2024-03-23T08:34:10;20.60;99.90
8332;DHT22;4203;48.144;14.118;2024-03-23T08:36:36;20.70;99.90
8332;DHT22;4203;48.144;14.118;2024-03-23T08:39:03;21.00;99.90
8332;DHT22;4203;48.144;14.118;2024-03-23T08:41:31;21.30;99.90
8332;DHT22;4203;48.144;14.118;2024-03-23T08:43:58;21.60;99.90
8332;DHT22;4203;48.144;14.118;2024-03-23T08:46:24;21.90;99.90
8332;DHT22;4203;48.144;14.118;2024-03-23T08:48:51;21.70;99.90
8332;DHT22;4203;48.144;14.118;2024-03-23T08:51:19;21.60;99.90
8332;DHT22;4203;48.144;14.118;2024-03-23T08:53:46;21.30;99.90
8332;DHT22;4203;48.144;14.118;2024-03-23T08:56:12;21.60;99.90
8332;DHT22;4203;48.144;14.118;2024-03-23T08:58:41;22.20;99.90
8332;DHT22;4203;48.144;14.118;2024-03-23T09:01:08;22.70;99.90
8332;DHT22;4203;48.144;14.118;2024-03-23T09:03:36;22.50;99.90
8332;DHT22;4203;48.144;14.118;2024-03-23T09:06:06;21.80;99.90
8332;DHT22;4203;48.144;14.118;2024-03-23T09:08:33;21.70;99.90
8332;DHT22;4203;48.144;14.118;2024-03-23T09:11:04;21.90;99.90
8332;DHT22;4203;48.144;14.118;2024-03-23T09:13:33;21.60;99.90
8332;DHT22;4203;48.144;14.118;2024-03-23T09:16:00;21.30;99.90
8332;DHT22;4203;48.144;14.118;2024-03-23T09:18:30;21.40;99.90
8332;DHT22;4203;48.144;14.118;2024-03-23T09:20:57;21.40;99.90
8332;DHT22;4203;48.144;14.118;2024-03-23T09:23:24;20.80;99.90
8332;DHT22;4203;48.144;14.118;2024-03-23T09:25:50;20.90;99.90
8332;DHT22;4203;48.144;14.118;2024-03-23T09:28:17;21.40;99.90
8332;DHT22;4203;48.144;14.118;2024-03-23T09:30:43;21.80;97.90
8332;DHT22;4203;48.144;14.118;2024-03-23T09:33:12;21.50;99.90
8332;DHT22;4203;48.144;14.118;2024-03-23T09:35:39;21.90;99.90
8332;DHT22;4203;48.144;14.118;2024-03-23T09:38:06;22.30;98.50
8332;DHT22;4203;48.144;14.118;2024-03-23T09:40:33;22.30;99.90
8332;DHT22;4203;48.144;14.118;2024-03-23T09:43:01;22.60;95.80
8332;DHT22;4203;48.144;14.118;2024-03-23T09:45:27;23.10;98.40
8332;DHT22;4203;48.144;14.118;2024-03-23T09:47:55;22.90;95.90
8332;DHT22;4203;48.144;14.118;2024-03-23T09:50:23;22.50;93.10
8332;DHT22;4203;48.144;14.118;2024-03-23T09:52:50;22.20;93.90
8332;DHT22;4203;48.144;14.118;2024-03-23T09:55:16;22.00;96.90
8332;DHT22;4203;48.144;14.118;2024-03-23T09:57:44;22.10;99.50
8332;DHT22;4203;48.144;14.118;2024-03-23T10:00:11;22.40;98.30
8332;DHT22;4203;48.144;14.118;2024-03-23T10:02:39;22.40;99.80
8332;DHT22;4203;48.144;14.118;2024-03-23T10:05:20;22.10;99.90
8332;DHT22;4203;48.144;14.118;2024-03-23T10:07:50;21.60;99.90
8332;DHT22;4203;48.144;14.118;2024-03-23T10:10:17;21.00;99.90
8332;DHT22;4203;48.144;14.118;2024-03-23T10:12:45;20.50;99.90
8332;DHT22;4203;48.144;14.118;2024-03-23T10:15:18;19.90;99.90
8332;DHT22;4203;48.144;14.118;2024-03-23T10:17:46;19.20;99.90
8332;DHT22;4203;48.144;14.118;2024-03-23T10:20:12;18.70;99.90
8332;DHT22;4203;48.144;14.118;2024-03-23T10:22:40;17.90;99.90
8332;DHT22;4203;48.144;14.118;2024-03-23T10:25:09;17.40;99.90
8332;DHT22;4203;48.144;14.118;2024-03-23T10:27:37;17.20;99.90
8332;DHT22;4203;48.144;14.118;2024-03-23T10:30:10;17.20;99.90
8332;DHT22;4203;48.144;14.118;2024-03-23T10:32:38;16.70;99.90
8332;DHT22;4203;48.144;14.118;2024-03-23T10:35:17;16.10;99.90
8332;DHT22;4203;48.144;14.118;2024-03-23T10:37:46;15.90;99.90
8332;DHT22;4203;48.144;14.118;2024-03-23T10:40:14;16.10;99.90
8332;DHT22;4203;48.144;14.118;2024-03-23T10:42:41;16.30;99.90
8332;DHT22;4203;48.144;14.118;2024-03-23T10:45:09;16.30;99.90
8332;DHT22;4203;48.144;14.118;2024-03-23T10:47:37;15.90;99.90
8332;DHT22;4203;48.144;14.118;2024-03-23T10:50:04;15.70;99.90
8332;DHT22;4203;48.144;14.118;2024-03-23T10:52:32;15.70;99.90
8332;DHT22;4203;48.144;14.118;2024-03-23T10:54:59;15.40;99.90
8332;DHT22;4203;48.144;14.118;2024-03-23T10:57:33;15.00;99.90
8332;DHT22;4203;48.144;14.118;2024-03-23T11:00:02;14.80;99.90
8332;DHT22;4203;48.144;14.118;2024-03-23T11:02:29;14.40;99.90
8332;DHT22;4203;48.144;14.118;2024-03-23T11:04:56;14.10;99.90
8332;DHT22;4203;48.144;14.118;2024-03-23T11:07:30;13.70;99.90
8332;DHT22;4203;48.144;14.118;2024-03-23T11:09:58;13.70;99.90
8332;DHT22;4203;48.144;14.118;2024-03-23T11:12:26;13.60;99.90
8332;DHT22;4203;48.144;14.118;2024-03-23T11:14:56;13.40;99.90
8332;DHT22;4203;48.144;14.118;2024-03-23T11:17:25;13.30;99.90
8332;DHT22;4203;48.144;14.118;2024-03-23T11:19:55;13.10;99.90
8332;DHT22;4203;48.144;14.118;2024-03-23T11:22:42;13.00;99.90
8332;DHT22;4203;48.144;14.118;2024-03-23T11:25:17;12.90;99.90
8332;DHT22;4203;48.144;14.118;2024-03-23T11:27:44;12.70;99.90
8332;DHT22;4203;48.144;14.118;2024-03-23T11:30:17;12.60;99.90
8332;DHT22;4203;48.144;14.118;2024-03-23T11:32:44;12.50;99.90
8332;DHT22;4203;48.144;14.118;2024-03-23T11:35:25;12.10;99.90
8332;DHT22;4203;48.144;14.118;2024-03-23T11:38:05;12.00;99.90
8332;DHT22;4203;48.144;14.118;2024-03-23T11:40:32;11.80;99.90
8332;DHT22;4203;48.144;14.118;2024-03-23T11:42:59;11.70;99.90
8332;DHT22;4203;48.144;14.118;2024-03-23T11:45:28;11.60;99.90
8332;DHT22;4203;48.144;14.118;2024-03-23T11:48:08;11.40;99.90
8332;DHT22;4203;48.144;14.118;2024-03-23T11:50:37;11.30;99.90
8332;DHT22;4203;48.144;14.118;2024-03-23T11:53:08;11.20;99.90
8332;DHT22;4203;48.144;14.118;2024-03-23T11:55:46;11.10;99.90
8332;DHT22;4203;48.144;14.118;2024-03-23T11:58:12;11.00;99.90
8332;DHT22;4203;48.144;14.118;2024-03-23T12:00:41;11.00;99.90
8332;DHT22;4203;48.144;14.118;2024-03-23T12:03:07;10.80;99.90
8332;DHT22;4203;48.144;14.118;2024-03-23T12:05:36;10.70;99.90
8332;DHT22;4203;48.144;14.118;2024-03-23T12:08:19;10.60;99.90
8332;DHT22;4203;48.144;14.118;2024-03-23T12:10:49;10.50;99.90
8332;DHT22;4203;48.144;14.118;2024-03-23T12:13:16;10.40;99.90
8332;DHT22;4203;48.144;14.118;2024-03-23T12:15:46;10.40;99.90
8332;DHT22;4203;48.144;14.118;2024-03-23T12:18:13;10.30;99.90
8332;DHT22;4203;48.144;14.118;2024-03-23T12:20:40;10.20;99.90
8332;DHT22;4203;48.144;14.118;2024-03-23T12:23:08;10.30;99.90
8332;DHT22;4203;48.144;14.118;2024-03-23T12:25:35;10.30;99.90
8332;DHT22;4203;48.144;14.118;2024-03-23T12:28:02;10.30;99.90
8332;DHT22;4203;48.144;14.118;2024-03-23T12:30:32;10.30;99.90
8332;DHT22;4203;48.144;14.118;2024-03-23T12:33:00;10.20;99.90
8332;DHT22;4203;48.144;14.118;2024-03-23T12:35:27;10.20;99.90
8332;DHT22;4203;48.144;14.118;2024-03-23T12:37:53;10.20;99.90
8332;DHT22;4203;48.144;14.118;2024-03-23T12:40:20;10.20;99.90
8332;DHT22;4203;48.144;14.118;2024-03-23T12:42:46;10.30;99.90
8332;DHT22;4203;48.144;14.118;2024-03-23T12:45:14;10.20;99.90
8332;DHT22;4203;48.144;14.118;2024-03-23T12:47:40;10.20;99.90
8332;DHT22;4203;48.144;14.118;2024-03-23T12:50:09;10.10;99.90
8332;DHT22;4203;48.144;14.118;2024-03-23T12:52:35;9.90;99.90
8332;DHT22;4203;48.144;14.118;2024-03-23T12:55:03;9.90;99.90
8332;DHT22;4203;48.144;14.118;2024-03-23T12:57:31;9.80;99.90
8332;DHT22;4203;48.144;14.118;2024-03-23T12:59:59;9.60;99.90
8332;DHT22;4203;48.144;14.118;2024-03-23T13:02:25;9.50;99.90
8332;DHT22;4203;48.144;14.118;2024-03-23T13:04:53;9.50;99.90
8332;DHT22;4203;48.144;14.118;2024-03-23T13:07:21;9.50;99.90
8332;DHT22;4203;48.144;14.118;2024-03-23T13:09:50;9.50;99.90
8332;DHT22;4203;48.144;14.118;2024-03-23T13:12:17;9.40;99.90
8332;DHT22;4203;48.144;14.118;2024-03-23T13:14:46;9.40;99.90
8332;DHT22;4203;48.144;14.118;2024-03-23T13:17:12;9.40;99.90
8332;DHT22;4203;48.144;14.118;2024-03-23T13:19:40;9.40;99.90
8332;DHT22;4203;48.144;14.118;2024-03-23T13:22:06;9.40;99.90
8332;DHT22;4203;48.144;14.118;2024-03-23T13:24:35;9.20;99.90
8332;DHT22;4203;48.144;14.118;2024-03-23T13:27:01;9.10;99.90
8332;DHT22;4203;48.144;14.118;2024-03-23T13:29:30;8.90;99.90
8332;DHT22;4203;48.144;14.118;2024-03-23T13:31:56;8.60;99.90
8332;DHT22;4203;48.144;14.118;2024-03-23T13:34:23;8.50;99.90
8332;DHT22;4203;48.144;14.118;2024-03-23T13:36:49;8.40;99.90
8332;DHT22;4203;48.144;14.118;2024-03-23T13:39:17;8.30;99.90
8332;DHT22;4203;48.144;14.118;2024-03-23T13:41:48;8.20;99.90
8332;DHT22;4203;48.144;14.118;2024-03-23T13:44:16;8.10;99.90
8332;DHT22;4203;48.144;14.118;2024-03-23T13:46:43;8.10;99.90
8332;DHT22;4203;48.144;14.118;2024-03-23T13:49:26;8.10;99.90
8332;DHT22;4203;48.144;14.118;2024-03-23T13:51:55;8.10;99.90
8332;DHT22;4203;48.144;14.118;2024-03-23T13:54:21;8.00;99.90
8332;DHT22;4203;48.144;14.118;2024-03-23T13:56:51;8.00;99.90
8332;DHT22;4203;48.144;14.118;2024-03-23T13:59:19;8.00;99.90
8332;DHT22;4203;48.144;14.118;2024-03-23T14:01:59;8.00;99.90
8332;DHT22;4203;48.144;14.118;2024-03-23T14:04:26;8.00;99.90
8332;DHT22;4203;48.144;14.118;2024-03-23T14:06:54;8.00;99.90
8332;DHT22;4203;48.144;14.118;2024-03-23T14:09:20;8.00;99.90
8332;DHT22;4203;48.144;14.118;2024-03-23T14:11:52;8.00;99.90
8332;DHT22;4203;48.144;14.118;2024-03-23T14:14:19;8.00;99.90
8332;DHT22;4203;48.144;14.118;2024-03-23T14:16:47;8.00;99.90
8332;DHT22;4203;48.144;14.118;2024-03-23T14:19:14;8.00;99.90
8332;DHT22;4203;48.144;14.118;2024-03-23T14:21:41;8.00;99.90
8332;DHT22;4203;48.144;14.118;2024-03-23T14:24:08;8.00;99.90
8332;DHT22;4203;48.144;14.118;2024-03-23T14:26:36;8.00;99.90
8332;DHT22;4203;48.144;14.118;2024-03-23T14:29:03;8.00;99.90
8332;DHT22;4203;48.144;14.118;2024-03-23T14:31:33;8.00;99.90
8332;DHT22;4203;48.144;14.118;2024-03-23T14:33:59;8.00;99.90
8332;DHT22;4203;48.144;14.118;2024-03-23T14:36:26;7.90;99.90
8332;DHT22;4203;48.144;14.118;2024-03-23T14:38:53;7.90;99.90
8332;DHT22;4203;48.144;14.118;2024-03-23T14:41:26;7.80;99.90
8332;DHT22;4203;48.144;14.118;2024-03-23T14:43:52;7.80;99.90
8332;DHT22;4203;48.144;14.118;2024-03-23T14:46:21;7.80;99.90
8332;DHT22;4203;48.144;14.118;2024-03-23T14:48:48;7.80;99.90
8332;DHT22;4203;48.144;14.118;2024-03-23T14:51:15;7.80;99.90
8332;DHT22;4203;48.144;14.118;2024-03-23T14:53:45;7.80;99.90
8332;DHT22;4203;48.144;14.118;2024-03-23T14:56:14;7.70;99.90
8332;DHT22;4203;48.144;14.118;2024-03-23T14:58:41;7.70;99.90
8332;DHT22;4203;48.144;14.118;2024-03-23T15:01:11;7.70;99.90
8332;DHT22;4203;48.144;14.118;2024-03-23T15:03:39;7.70;99.90
8332;DHT22;4203;48.144;14.118;2024-03-23T15:06:08;7.60;99.90
8332;DHT22;4203;48.144;14.118;2024-03-23T15:08:35;7.60;99.90
8332;DHT22;4203;48.144;14.118;2024-03-23T15:11:02;7.60;99.90
8332;DHT22;4203;48.144;14.118;2024-03-23T15:13:31;7.50;99.90
8332;DHT22;4203;48.144;14.118;2024-03-23T15:15:58;7.60;99.90
8332;DHT22;4203;48.144;14.118;2024-03-23T15:18:24;7.60;99.90
8332;DHT22;4203;48.144;14.118;2024-03-23T15:20:55;7.60;99.90
8332;DHT22;4203;48.144;14.118;2024-03-23T15:23:22;7.60;99.90
8332;DHT22;4203;48.144;14.118;2024-03-23T15:25:54;7.50;99.90
8332;DHT22;4203;48.144;14.118;2024-03-23T15:28:20;7.50;99.90
8332;DHT22;4203;48.144;14.118;2024-03-23T15:30:48;7.50;99.90
8332;DHT22;4203;48.144;14.118;2024-03-23T15:33:14;7.40;99.90
8332;DHT22;4203;48.144;14.118;2024-03-23T15:35:41;7.30;99.90
8332;DHT22;4203;48.144;14.118;2024-03-23T15:38:08;7.30;99.90
8332;DHT22;4203;48.144;14.118;2024-03-23T15:40:36;7.30;99.90
8332;DHT22;4203;48.144;14.118;2024-03-23T15:43:03;7.20;99.90
8332;DHT22;4203;48.144;14.118;2024-03-23T15:45:31;7.20;99.90
8332;DHT22;4203;48.144;14.118;2024-03-23T15:47:58;7.10;99.90
8332;DHT22;4203;48.144;14.118;2024-03-23T15:50:25;7.10;99.90
8332;DHT22;4203;48.144;14.118;2024-03-23T15:52:51;7.10;99.90
8332;DHT22;4203;48.144;14.118;2024-03-23T15:55:20;7.00;99.90
8332;DHT22;4203;48.144;14.118;2024-03-23T15:57:46;7.00;99.90
8332;DHT22;4203;48.144;14.118;2024-03-23T16:00:13;7.00;99.90
8332;DHT22;4203;48.144;14.118;2024-03-23T16:02:40;7.00;99.90
8332;DHT22;4203;48.144;14.118;2024-03-23T16:05:07;7.00;99.90
8332;DHT22;4203;48.144;14.118;2024-03-23T16:07:37;7.10;99.90
8332;DHT22;4203;48.144;14.118;2024-03-23T16:10:05;7.10;99.90
8332;DHT22;4203;48.144;14.118;2024-03-23T16:12:36;7.10;99.90
8332;DHT22;4203;48.144;14.118;2024-03-23T16:15:04;7.10;99.90
8332;DHT22;4203;48.144;14.118;2024-03-23T16:17:31;7.10;99.90
8332;DHT22;4203;48.144;14.118;2024-03-23T16:20:03;7.00;99.90
8332;DHT22;4203;48.144;14.118;2024-03-23T16:22:30;7.00;99.90
8332;DHT22;4203;48.144;14.118;2024-03-23T16:24:57;6.90;99.90
8332;DHT22;4203;48.144;14.118;2024-03-23T16:27:23;6.80;99.90
8332;DHT22;4203;48.144;14.118;2024-03-23T16:29:51;6.80;99.90
8332;DHT22;4203;48.144;14.118;2024-03-23T16:32:19;6.80;99.90
8332;DHT22;4203;48.144;14.118;2024-03-23T16:34:46;6.80;99.90
8332;DHT22;4203;48.144;14.118;2024-03-23T16:37:12;6.80;99.90
8332;DHT22;4203;48.144;14.118;2024-03-23T16:39:39;6.70;99.90
8332;DHT22;4203;48.144;14.118;2024-03-23T16:42:06;6.70;99.90
8332;DHT22;4203;48.144;14.118;2024-03-23T16:44:33;6.70;99.90
8332;DHT22;4203;48.144;14.118;2024-03-23T16:47:00;6.70;99.90
8332;DHT22;4203;48.144;14.118;2024-03-23T16:49:28;6.70;99.90
8332;DHT22;4203;48.144;14.118;2024-03-23T16:51:56;6.50;99.90
